sensor_id;sensor_type;location;lat;lon;timestamp;temperature;humidity
14210;DHT22;7188;56.070;12.698;2024-02-26T00:00:38;4.90;99.90
14210;DHT22;7188;56.070;12.698;2024-02-26T00:03:04;4.90;99.90
14210;DHT22;7188;56.070;12.698;2024-02-26T00:05:30;4.90;99.90
14210;DHT22;7188;56.070;12.698;2024-02-26T00:07:56;4.80;99.90
14210;DHT22;7188;56.070;12.698;2024-02-26T00:10:22;4.80;99.90
14210;DHT22;7188;56.070;12.698;2024-02-26T00:12:48;4.80;99.90
14210;DHT22;7188;56.070;12.698;2024-02-26T00:15:13;4.80;99.90
14210;DHT22;7188;56.070;12.698;2024-02-26T00:17:39;4.90;99.90
14210;DHT22;7188;56.070;12.698;2024-02-26T00:20:06;5.00;99.90
14210;DHT22;7188;56.070;12.698;2024-02-26T00:22:34;5.00;99.90
14210;DHT22;7188;56.070;12.698;2024-02-26T00:25:00;4.90;99.90
14210;DHT22;7188;56.070;12.698;2024-02-26T00:27:26;4.90;99.90
14210;DHT22;7188;56.070;12.698;2024-02-26T00:29:51;5.00;99.90
14210;DHT22;7188;56.070;12.698;2024-02-26T00:32:17;5.00;99.90
14210;DHT22;7188;56.070;12.698;2024-02-26T00:34:43;5.00;99.90
14210;DHT22;7188;56.070;12.698;2024-02-26T00:37:09;5.00;99.90
14210;DHT22;7188;56.070;12.698;2024-02-26T00:39:35;5.10;99.90
14210;DHT22;7188;56.070;12.698;2024-02-26T00:42:00;5.10;99.90
14210;DHT22;7188;56.070;12.698;2024-02-26T00:44:26;5.10;99.90
14210;DHT22;7188;56.070;12.698;2024-02-26T00:46:51;5.00;99.90
14210;DHT22;7188;56.070;12.698;2024-02-26T00:49:17;5.20;99.90
14210;DHT22;7188;56.070;12.698;2024-02-26T00:51:43;5.10;99.90
14210;DHT22;7188;56.070;12.698;2024-02-26T00:54:08;5.10;99.90
14210;DHT22;7188;56.070;12.698;2024-02-26T00:56:34;5.10;99.90
14210;DHT22;7188;56.070;12.698;2024-02-26T00:58:59;5.10;99.90
14210;DHT22;7188;56.070;12.698;2024-02-26T01:01:25;5.10;99.90
14210;DHT22;7188;56.070;12.698;2024-02-26T01:03:51;5.20;99.90
14210;DHT22;7188;56.070;12.698;2024-02-26T01:06:17;5.10;99.90
14210;DHT22;7188;56.070;12.698;2024-02-26T01:08:42;5.20;99.90
14210;DHT22;7188;56.070;12.698;2024-02-26T01:11:08;5.20;99.90
14210;DHT22;7188;56.070;12.698;2024-02-26T01:13:34;5.10;99.90
14210;DHT22;7188;56.070;12.698;2024-02-26T01:15:59;5.20;99.90
14210;DHT22;7188;56.070;12.698;2024-02-26T01:18:26;5.20;99.90
14210;DHT22;7188;56.070;12.698;2024-02-26T01:20:52;5.20;99.90
14210;DHT22;7188;56.070;12.698;2024-02-26T01:23:20;5.10;99.90
14210;DHT22;7188;56.070;12.698;2024-02-26T01:25:45;5.10;99.90
14210;DHT22;7188;56.070;12.698;2024-02-26T01:28:11;5.10;99.90
14210;DHT22;7188;56.070;12.698;2024-02-26T01:30:37;5.10;99.90
14210;DHT22;7188;56.070;12.698;2024-02-26T01:33:02;5.30;99.90
14210;DHT22;7188;56.070;12.698;2024-02-26T01:35:29;5.30;99.90
14210;DHT22;7188;56.070;12.698;2024-02-26T01:37:55;5.20;99.90
14210;DHT22;7188;56.070;12.698;2024-02-26T01:40:21;5.20;99.90
14210;DHT22;7188;56.070;12.698;2024-02-26T01:42:47;5.20;99.90
14210;DHT22;7188;56.070;12.698;2024-02-26T01:45:17;5.10;99.90
14210;DHT22;7188;56.070;12.698;2024-02-26T01:47:52;5.20;99.90
14210;DHT22;7188;56.070;12.698;2024-02-26T01:50:18;5.10;99.90
14210;DHT22;7188;56.070;12.698;2024-02-26T01:52:46;5.00;99.90
14210;DHT22;7188;56.070;12.698;2024-02-26T01:55:13;5.00;99.90
14210;DHT22;7188;56.070;12.698;2024-02-26T01:57:41;4.90;99.90
14210;DHT22;7188;56.070;12.698;2024-02-26T02:00:07;4.80;99.90
14210;DHT22;7188;56.070;12.698;2024-02-26T02:02:34;4.80;99.90
14210;DHT22;7188;56.070;12.698;2024-02-26T02:05:00;4.80;99.90
14210;DHT22;7188;56.070;12.698;2024-02-26T02:07:26;5.00;99.90
14210;DHT22;7188;56.070;12.698;2024-02-26T02:09:51;5.00;99.90
14210;DHT22;7188;56.070;12.698;2024-02-26T02:12:19;4.90;99.90
14210;DHT22;7188;56.070;12.698;2024-02-26T02:14:44;4.90;99.90
14210;DHT22;7188;56.070;12.698;2024-02-26T02:17:10;4.80;99.90
14210;DHT22;7188;56.070;12.698;2024-02-26T02:19:36;4.70;99.90
14210;DHT22;7188;56.070;12.698;2024-02-26T02:22:02;4.70;99.90
14210;DHT22;7188;56.070;12.698;2024-02-26T02:24:27;4.60;99.90
14210;DHT22;7188;56.070;12.698;2024-02-26T02:26:53;4.70;99.90
14210;DHT22;7188;56.070;12.698;2024-02-26T02:29:19;4.50;99.90
14210;DHT22;7188;56.070;12.698;2024-02-26T02:31:44;4.60;99.90
14210;DHT22;7188;56.070;12.698;2024-02-26T02:34:10;4.70;99.90
14210;DHT22;7188;56.070;12.698;2024-02-26T02:36:48;4.90;99.90
14210;DHT22;7188;56.070;12.698;2024-02-26T02:39:15;4.80;99.90
14210;DHT22;7188;56.070;12.698;2024-02-26T02:41:41;4.70;99.90
14210;DHT22;7188;56.070;12.698;2024-02-26T02:44:06;4.70;99.90
14210;DHT22;7188;56.070;12.698;2024-02-26T02:46:32;4.80;99.90
14210;DHT22;7188;56.070;12.698;2024-02-26T02:48:59;5.00;99.90
14210;DHT22;7188;56.070;12.698;2024-02-26T02:51:24;5.00;99.90
14210;DHT22;7188;56.070;12.698;2024-02-26T02:53:50;4.80;99.90
14210;DHT22;7188;56.070;12.698;2024-02-26T02:56:15;4.70;99.90
14210;DHT22;7188;56.070;12.698;2024-02-26T02:58:41;5.00;99.90
14210;DHT22;7188;56.070;12.698;2024-02-26T03:01:07;4.90;99.90
14210;DHT22;7188;56.070;12.698;2024-02-26T03:03:33;5.10;99.90
14210;DHT22;7188;56.070;12.698;2024-02-26T03:05:59;5.00;99.90
14210;DHT22;7188;56.070;12.698;2024-02-26T03:08:24;4.90;99.90
14210;DHT22;7188;56.070;12.698;2024-02-26T03:10:51;4.70;99.90
14210;DHT22;7188;56.070;12.698;2024-02-26T03:13:17;4.60;99.90
14210;DHT22;7188;56.070;12.698;2024-02-26T03:15:43;4.40;99.90
14210;DHT22;7188;56.070;12.698;2024-02-26T03:18:08;4.20;99.90
14210;DHT22;7188;56.070;12.698;2024-02-26T03:20:34;4.10;99.90
14210;DHT22;7188;56.070;12.698;2024-02-26T03:23:00;4.00;99.90
14210;DHT22;7188;56.070;12.698;2024-02-26T03:25:25;3.90;99.90
14210;DHT22;7188;56.070;12.698;2024-02-26T03:27:51;3.90;99.90
14210;DHT22;7188;56.070;12.698;2024-02-26T03:30:17;4.00;99.90
14210;DHT22;7188;56.070;12.698;2024-02-26T03:32:42;4.10;99.90
14210;DHT22;7188;56.070;12.698;2024-02-26T03:35:08;4.60;99.90
14210;DHT22;7188;56.070;12.698;2024-02-26T03:37:34;4.80;99.90
14210;DHT22;7188;56.070;12.698;2024-02-26T03:40:00;4.90;99.90
14210;DHT22;7188;56.070;12.698;2024-02-26T03:42:26;4.80;99.90
14210;DHT22;7188;56.070;12.698;2024-02-26T03:44:52;4.80;99.90
14210;DHT22;7188;56.070;12.698;2024-02-26T03:47:18;4.90;99.90
14210;DHT22;7188;56.070;12.698;2024-02-26T03:49:43;5.00;99.90
14210;DHT22;7188;56.070;12.698;2024-02-26T03:52:10;4.80;99.90
14210;DHT22;7188;56.070;12.698;2024-02-26T03:54:35;4.50;99.90
14210;DHT22;7188;56.070;12.698;2024-02-26T03:57:01;4.60;99.90
14210;DHT22;7188;56.070;12.698;2024-02-26T03:59:27;4.50;99.90
14210;DHT22;7188;56.070;12.698;2024-02-26T04:01:52;4.20;99.90
14210;DHT22;7188;56.070;12.698;2024-02-26T04:04:18;4.00;99.90
14210;DHT22;7188;56.070;12.698;2024-02-26T04:06:47;4.00;99.90
14210;DHT22;7188;56.070;12.698;2024-02-26T04:09:16;3.90;99.90
14210;DHT22;7188;56.070;12.698;2024-02-26T04:11:41;3.70;99.90
14210;DHT22;7188;56.070;12.698;2024-02-26T04:14:08;3.60;99.90
14210;DHT22;7188;56.070;12.698;2024-02-26T04:16:37;3.60;99.90
14210;DHT22;7188;56.070;12.698;2024-02-26T04:19:03;3.50;99.90
14210;DHT22;7188;56.070;12.698;2024-02-26T04:21:28;3.40;99.90
14210;DHT22;7188;56.070;12.698;2024-02-26T04:23:54;3.30;99.90
14210;DHT22;7188;56.070;12.698;2024-02-26T04:26:26;3.20;99.90
14210;DHT22;7188;56.070;12.698;2024-02-26T04:28:52;3.10;99.90
14210;DHT22;7188;56.070;12.698;2024-02-26T04:31:18;3.10;99.90
14210;DHT22;7188;56.070;12.698;2024-02-26T04:33:44;3.60;99.90
14210;DHT22;7188;56.070;12.698;2024-02-26T04:36:16;3.60;99.90
14210;DHT22;7188;56.070;12.698;2024-02-26T04:38:57;3.40;99.90
14210;DHT22;7188;56.070;12.698;2024-02-26T04:41:23;3.30;99.90
14210;DHT22;7188;56.070;12.698;2024-02-26T04:43:49;3.40;99.90
14210;DHT22;7188;56.070;12.698;2024-02-26T04:46:15;3.20;99.90
14210;DHT22;7188;56.070;12.698;2024-02-26T04:48:40;2.90;99.90
14210;DHT22;7188;56.070;12.698;2024-02-26T04:51:07;3.20;99.90
14210;DHT22;7188;56.070;12.698;2024-02-26T04:53:41;3.20;99.90
14210;DHT22;7188;56.070;12.698;2024-02-26T04:56:06;3.30;99.90
14210;DHT22;7188;56.070;12.698;2024-02-26T04:58:32;3.10;99.90
14210;DHT22;7188;56.070;12.698;2024-02-26T05:00:57;3.20;99.90
14210;DHT22;7188;56.070;12.698;2024-02-26T05:03:23;3.30;99.90
14210;DHT22;7188;56.070;12.698;2024-02-26T05:05:49;3.40;99.90
14210;DHT22;7188;56.070;12.698;2024-02-26T05:08:14;3.30;99.90
14210;DHT22;7188;56.070;12.698;2024-02-26T05:10:40;3.20;99.90
14210;DHT22;7188;56.070;12.698;2024-02-26T05:13:09;3.10;99.90
14210;DHT22;7188;56.070;12.698;2024-02-26T05:15:36;3.20;99.90
14210;DHT22;7188;56.070;12.698;2024-02-26T05:18:02;3.40;99.90
14210;DHT22;7188;56.070;12.698;2024-02-26T05:20:28;3.30;99.90
14210;DHT22;7188;56.070;12.698;2024-02-26T05:22:54;3.20;99.90
14210;DHT22;7188;56.070;12.698;2024-02-26T05:25:20;3.10;99.90
14210;DHT22;7188;56.070;12.698;2024-02-26T05:27:45;3.00;99.90
14210;DHT22;7188;56.070;12.698;2024-02-26T05:30:11;3.00;99.90
14210;DHT22;7188;56.070;12.698;2024-02-26T05:32:37;3.20;99.90
14210;DHT22;7188;56.070;12.698;2024-02-26T05:35:03;3.40;99.90
14210;DHT22;7188;56.070;12.698;2024-02-26T05:37:29;3.50;99.90
14210;DHT22;7188;56.070;12.698;2024-02-26T05:39:55;3.20;99.90
14210;DHT22;7188;56.070;12.698;2024-02-26T05:42:21;2.80;99.90
14210;DHT22;7188;56.070;12.698;2024-02-26T05:44:46;2.60;99.90
14210;DHT22;7188;56.070;12.698;2024-02-26T05:47:12;2.70;99.90
14210;DHT22;7188;56.070;12.698;2024-02-26T05:49:39;2.90;99.90
14210;DHT22;7188;56.070;12.698;2024-02-26T05:52:05;3.20;99.90
14210;DHT22;7188;56.070;12.698;2024-02-26T05:54:31;3.30;99.90
14210;DHT22;7188;56.070;12.698;2024-02-26T05:56:57;3.10;99.90
14210;DHT22;7188;56.070;12.698;2024-02-26T05:59:26;2.90;99.90
14210;DHT22;7188;56.070;12.698;2024-02-26T06:01:52;2.90;99.90
14210;DHT22;7188;56.070;12.698;2024-02-26T06:04:17;2.80;99.90
14210;DHT22;7188;56.070;12.698;2024-02-26T06:06:44;3.10;99.90
14210;DHT22;7188;56.070;12.698;2024-02-26T06:09:10;3.20;99.90
14210;DHT22;7188;56.070;12.698;2024-02-26T06:11:37;3.20;99.90
14210;DHT22;7188;56.070;12.698;2024-02-26T06:14:02;3.10;99.90
14210;DHT22;7188;56.070;12.698;2024-02-26T06:16:28;3.10;99.90
14210;DHT22;7188;56.070;12.698;2024-02-26T06:18:53;2.90;99.90
14210;DHT22;7188;56.070;12.698;2024-02-26T06:21:19;2.80;99.90
14210;DHT22;7188;56.070;12.698;2024-02-26T06:23:44;2.90;99.90
14210;DHT22;7188;56.070;12.698;2024-02-26T06:26:10;2.90;99.90
14210;DHT22;7188;56.070;12.698;2024-02-26T06:28:36;3.10;99.90
14210;DHT22;7188;56.070;12.698;2024-02-26T06:31:02;2.90;99.90
14210;DHT22;7188;56.070;12.698;2024-02-26T06:33:28;2.90;99.90
14210;DHT22;7188;56.070;12.698;2024-02-26T06:35:53;3.10;99.90
14210;DHT22;7188;56.070;12.698;2024-02-26T06:38:19;3.20;99.90
14210;DHT22;7188;56.070;12.698;2024-02-26T06:40:46;3.30;99.90
14210;DHT22;7188;56.070;12.698;2024-02-26T06:43:11;3.30;99.90
14210;DHT22;7188;56.070;12.698;2024-02-26T06:45:37;3.40;99.90
14210;DHT22;7188;56.070;12.698;2024-02-26T06:48:02;3.60;99.90
14210;DHT22;7188;56.070;12.698;2024-02-26T06:50:28;3.70;99.90
14210;DHT22;7188;56.070;12.698;2024-02-26T06:52:54;3.90;99.90
14210;DHT22;7188;56.070;12.698;2024-02-26T06:55:19;4.00;99.90
14210;DHT22;7188;56.070;12.698;2024-02-26T06:57:45;3.90;99.90
14210;DHT22;7188;56.070;12.698;2024-02-26T07:00:11;3.80;99.90
14210;DHT22;7188;56.070;12.698;2024-02-26T07:02:42;4.10;99.90
14210;DHT22;7188;56.070;12.698;2024-02-26T07:05:08;4.00;99.90
14210;DHT22;7188;56.070;12.698;2024-02-26T07:07:33;4.30;99.90
14210;DHT22;7188;56.070;12.698;2024-02-26T07:09:59;4.50;99.90
14210;DHT22;7188;56.070;12.698;2024-02-26T07:12:25;4.70;99.90
14210;DHT22;7188;56.070;12.698;2024-02-26T07:14:51;4.80;99.90
14210;DHT22;7188;56.070;12.698;2024-02-26T07:17:17;4.60;99.90
14210;DHT22;7188;56.070;12.698;2024-02-26T07:19:43;4.30;99.90
14210;DHT22;7188;56.070;12.698;2024-02-26T07:22:09;4.20;99.90
14210;DHT22;7188;56.070;12.698;2024-02-26T07:24:34;4.20;99.90
14210;DHT22;7188;56.070;12.698;2024-02-26T07:27:00;4.20;99.90
14210;DHT22;7188;56.070;12.698;2024-02-26T07:29:25;4.20;99.90
14210;DHT22;7188;56.070;12.698;2024-02-26T07:31:51;4.50;99.90
14210;DHT22;7188;56.070;12.698;2024-02-26T07:34:17;4.50;99.90
14210;DHT22;7188;56.070;12.698;2024-02-26T07:36:42;4.70;99.90
14210;DHT22;7188;56.070;12.698;2024-02-26T07:39:08;4.70;99.90
14210;DHT22;7188;56.070;12.698;2024-02-26T07:41:34;4.80;99.90
14210;DHT22;7188;56.070;12.698;2024-02-26T07:43:59;5.10;99.90
14210;DHT22;7188;56.070;12.698;2024-02-26T07:46:25;5.00;99.90
14210;DHT22;7188;56.070;12.698;2024-02-26T07:48:51;5.00;99.90
14210;DHT22;7188;56.070;12.698;2024-02-26T07:51:16;5.00;99.90
14210;DHT22;7188;56.070;12.698;2024-02-26T07:53:43;5.10;99.90
14210;DHT22;7188;56.070;12.698;2024-02-26T07:56:09;5.30;99.90
14210;DHT22;7188;56.070;12.698;2024-02-26T07:58:35;5.60;99.90
14210;DHT22;7188;56.070;12.698;2024-02-26T08:01:01;5.80;99.90
14210;DHT22;7188;56.070;12.698;2024-02-26T08:03:26;5.80;99.90
14210;DHT22;7188;56.070;12.698;2024-02-26T08:05:52;5.90;99.90
14210;DHT22;7188;56.070;12.698;2024-02-26T08:08:18;5.70;99.90
14210;DHT22;7188;56.070;12.698;2024-02-26T08:10:44;5.80;99.90
14210;DHT22;7188;56.070;12.698;2024-02-26T08:13:09;5.80;99.90
14210;DHT22;7188;56.070;12.698;2024-02-26T08:15:35;5.80;99.90
14210;DHT22;7188;56.070;12.698;2024-02-26T08:18:03;5.90;99.90
14210;DHT22;7188;56.070;12.698;2024-02-26T08:20:32;5.90;99.90
14210;DHT22;7188;56.070;12.698;2024-02-26T08:22:58;5.80;99.90
14210;DHT22;7188;56.070;12.698;2024-02-26T08:25:24;5.70;99.90
14210;DHT22;7188;56.070;12.698;2024-02-26T08:27:53;5.70;99.90
14210;DHT22;7188;56.070;12.698;2024-02-26T08:30:19;5.90;99.90
14210;DHT22;7188;56.070;12.698;2024-02-26T08:32:46;6.00;99.90
14210;DHT22;7188;56.070;12.698;2024-02-26T08:35:12;6.20;99.90
14210;DHT22;7188;56.070;12.698;2024-02-26T08:37:38;6.20;99.90
14210;DHT22;7188;56.070;12.698;2024-02-26T08:40:05;6.20;99.90
14210;DHT22;7188;56.070;12.698;2024-02-26T08:42:30;6.20;99.90
14210;DHT22;7188;56.070;12.698;2024-02-26T08:44:56;6.00;99.90
14210;DHT22;7188;56.070;12.698;2024-02-26T08:47:22;5.90;99.90
14210;DHT22;7188;56.070;12.698;2024-02-26T08:49:48;5.90;99.90
14210;DHT22;7188;56.070;12.698;2024-02-26T08:52:14;6.00;99.90
14210;DHT22;7188;56.070;12.698;2024-02-26T08:54:39;6.00;99.90
14210;DHT22;7188;56.070;12.698;2024-02-26T08:57:06;6.20;99.90
14210;DHT22;7188;56.070;12.698;2024-02-26T08:59:31;6.40;99.90
14210;DHT22;7188;56.070;12.698;2024-02-26T09:01:57;6.60;99.90
14210;DHT22;7188;56.070;12.698;2024-02-26T09:04:22;6.70;99.90
14210;DHT22;7188;56.070;12.698;2024-02-26T09:06:48;6.70;99.90
14210;DHT22;7188;56.070;12.698;2024-02-26T09:09:14;6.50;99.90
14210;DHT22;7188;56.070;12.698;2024-02-26T09:11:40;6.30;99.90
14210;DHT22;7188;56.070;12.698;2024-02-26T09:14:05;6.30;99.90
14210;DHT22;7188;56.070;12.698;2024-02-26T09:16:31;6.20;99.90
14210;DHT22;7188;56.070;12.698;2024-02-26T09:18:57;6.20;99.90
14210;DHT22;7188;56.070;12.698;2024-02-26T09:21:23;6.10;99.90
14210;DHT22;7188;56.070;12.698;2024-02-26T09:23:50;6.20;99.90
14210;DHT22;7188;56.070;12.698;2024-02-26T09:26:16;6.40;99.90
14210;DHT22;7188;56.070;12.698;2024-02-26T09:28:42;6.40;99.90
14210;DHT22;7188;56.070;12.698;2024-02-26T09:31:08;6.60;99.90
14210;DHT22;7188;56.070;12.698;2024-02-26T09:33:34;6.80;99.90
14210;DHT22;7188;56.070;12.698;2024-02-26T09:35:59;6.90;99.90
14210;DHT22;7188;56.070;12.698;2024-02-26T09:38:28;7.00;99.90
14210;DHT22;7188;56.070;12.698;2024-02-26T09:40:59;7.30;99.90
14210;DHT22;7188;56.070;12.698;2024-02-26T09:43:28;7.50;99.90
14210;DHT22;7188;56.070;12.698;2024-02-26T09:45:58;7.60;99.90
14210;DHT22;7188;56.070;12.698;2024-02-26T09:48:23;7.50;99.90
14210;DHT22;7188;56.070;12.698;2024-02-26T09:50:50;7.40;99.90
14210;DHT22;7188;56.070;12.698;2024-02-26T09:53:22;7.30;99.90
14210;DHT22;7188;56.070;12.698;2024-02-26T09:55:48;7.40;99.90
14210;DHT22;7188;56.070;12.698;2024-02-26T09:58:32;7.60;99.90
14210;DHT22;7188;56.070;12.698;2024-02-26T10:01:00;7.60;99.90
14210;DHT22;7188;56.070;12.698;2024-02-26T10:03:44;7.40;99.90
14210;DHT22;7188;56.070;12.698;2024-02-26T10:06:13;7.40;99.90
14210;DHT22;7188;56.070;12.698;2024-02-26T10:08:39;7.20;99.90
14210;DHT22;7188;56.070;12.698;2024-02-26T10:11:07;6.90;99.90
14210;DHT22;7188;56.070;12.698;2024-02-26T10:13:35;6.80;99.90
14210;DHT22;7188;56.070;12.698;2024-02-26T10:16:10;6.90;99.90
14210;DHT22;7188;56.070;12.698;2024-02-26T10:18:54;7.00;99.90
14210;DHT22;7188;56.070;12.698;2024-02-26T10:21:21;7.10;99.90
14210;DHT22;7188;56.070;12.698;2024-02-26T10:23:47;7.00;99.90
14210;DHT22;7188;56.070;12.698;2024-02-26T10:26:14;7.20;99.90
14210;DHT22;7188;56.070;12.698;2024-02-26T10:28:42;7.20;99.90
14210;DHT22;7188;56.070;12.698;2024-02-26T10:31:09;7.30;99.90
14210;DHT22;7188;56.070;12.698;2024-02-26T10:33:36;7.30;99.90
14210;DHT22;7188;56.070;12.698;2024-02-26T10:36:05;7.40;99.90
14210;DHT22;7188;56.070;12.698;2024-02-26T10:38:32;7.50;99.90
14210;DHT22;7188;56.070;12.698;2024-02-26T10:40:58;7.40;99.90
14210;DHT22;7188;56.070;12.698;2024-02-26T10:43:27;7.30;99.90
14210;DHT22;7188;56.070;12.698;2024-02-26T10:45:55;7.20;99.90
14210;DHT22;7188;56.070;12.698;2024-02-26T10:48:21;7.10;99.90
14210;DHT22;7188;56.070;12.698;2024-02-26T10:50:47;7.00;99.90
14210;DHT22;7188;56.070;12.698;2024-02-26T10:53:17;7.10;99.90
14210;DHT22;7188;56.070;12.698;2024-02-26T10:55:52;7.10;99.90
14210;DHT22;7188;56.070;12.698;2024-02-26T10:58:20;7.10;99.90
14210;DHT22;7188;56.070;12.698;2024-02-26T11:00:48;7.20;99.90
14210;DHT22;7188;56.070;12.698;2024-02-26T11:03:15;7.20;99.90
14210;DHT22;7188;56.070;12.698;2024-02-26T11:05:48;7.20;99.90
14210;DHT22;7188;56.070;12.698;2024-02-26T11:08:14;7.40;99.90
14210;DHT22;7188;56.070;12.698;2024-02-26T11:10:41;7.50;99.90
14210;DHT22;7188;56.070;12.698;2024-02-26T11:13:09;7.60;99.90
14210;DHT22;7188;56.070;12.698;2024-02-26T11:15:37;7.60;99.90
14210;DHT22;7188;56.070;12.698;2024-02-26T11:18:03;7.50;99.90
14210;DHT22;7188;56.070;12.698;2024-02-26T11:20:29;7.50;99.90
14210;DHT22;7188;56.070;12.698;2024-02-26T11:22:57;7.60;99.90
14210;DHT22;7188;56.070;12.698;2024-02-26T11:25:23;7.60;99.90
14210;DHT22;7188;56.070;12.698;2024-02-26T11:27:55;7.50;99.90
14210;DHT22;7188;56.070;12.698;2024-02-26T11:30:25;7.70;99.90
14210;DHT22;7188;56.070;12.698;2024-02-26T11:32:52;7.60;99.90
14210;DHT22;7188;56.070;12.698;2024-02-26T11:35:19;7.70;99.90
14210;DHT22;7188;56.070;12.698;2024-02-26T11:37:54;7.60;99.90
14210;DHT22;7188;56.070;12.698;2024-02-26T11:40:25;7.60;99.90
14210;DHT22;7188;56.070;12.698;2024-02-26T11:42:51;7.50;99.90
14210;DHT22;7188;56.070;12.698;2024-02-26T11:48:15;7.30;99.90
14210;DHT22;7188;56.070;12.698;2024-02-26T11:50:46;7.30;99.90
14210;DHT22;7188;56.070;12.698;2024-02-26T11:53:31;7.40;99.90
14210;DHT22;7188;56.070;12.698;2024-02-26T11:59:10;7.30;99.90
14210;DHT22;7188;56.070;12.698;2024-02-26T12:01:47;7.30;99.90
14210;DHT22;7188;56.070;12.698;2024-02-26T12:04:22;7.20;99.90
14210;DHT22;7188;56.070;12.698;2024-02-26T12:06:53;7.10;99.90
14210;DHT22;7188;56.070;12.698;2024-02-26T12:12:06;7.10;99.90
14210;DHT22;7188;56.070;12.698;2024-02-26T12:14:50;7.20;99.90
14210;DHT22;7188;56.070;12.698;2024-02-26T12:17:21;7.20;99.90
14210;DHT22;7188;56.070;12.698;2024-02-26T12:19:47;7.20;99.90
14210;DHT22;7188;56.070;12.698;2024-02-26T12:22:13;7.20;99.90
14210;DHT22;7188;56.070;12.698;2024-02-26T12:28:02;7.20;99.90
14210;DHT22;7188;56.070;12.698;2024-02-26T12:30:31;7.20;99.90
14210;DHT22;7188;56.070;12.698;2024-02-26T12:32:57;7.20;99.90
14210;DHT22;7188;56.070;12.698;2024-02-26T12:35:26;7.20;99.90
14210;DHT22;7188;56.070;12.698;2024-02-26T12:37:53;7.10;99.90
14210;DHT22;7188;56.070;12.698;2024-02-26T12:40:19;7.10;99.90
14210;DHT22;7188;56.070;12.698;2024-02-26T12:42:45;7.10;99.90
14210;DHT22;7188;56.070;12.698;2024-02-26T12:45:12;7.10;99.90
14210;DHT22;7188;56.070;12.698;2024-02-26T12:47:53;7.10;99.90
14210;DHT22;7188;56.070;12.698;2024-02-26T12:50:19;7.20;99.90
14210;DHT22;7188;56.070;12.698;2024-02-26T12:52:46;7.20;99.90
14210;DHT22;7188;56.070;12.698;2024-02-26T12:55:18;7.30;99.90
14210;DHT22;7188;56.070;12.698;2024-02-26T12:57:53;7.30;99.90
14210;DHT22;7188;56.070;12.698;2024-02-26T13:00:25;7.40;99.90
14210;DHT22;7188;56.070;12.698;2024-02-26T13:02:52;7.20;99.90
14210;DHT22;7188;56.070;12.698;2024-02-26T13:05:20;7.20;99.90
14210;DHT22;7188;56.070;12.698;2024-02-26T13:07:46;7.20;99.90
14210;DHT22;7188;56.070;12.698;2024-02-26T13:10:17;7.30;99.90
14210;DHT22;7188;56.070;12.698;2024-02-26T13:12:48;7.30;99.90
14210;DHT22;7188;56.070;12.698;2024-02-26T13:15:18;7.50;99.90
14210;DHT22;7188;56.070;12.698;2024-02-26T13:17:45;7.50;99.90
14210;DHT22;7188;56.070;12.698;2024-02-26T13:20:11;7.60;99.90
14210;DHT22;7188;56.070;12.698;2024-02-26T13:22:38;7.60;99.90
14210;DHT22;7188;56.070;12.698;2024-02-26T13:25:04;7.60;99.90
14210;DHT22;7188;56.070;12.698;2024-02-26T13:27:29;7.60;99.90
14210;DHT22;7188;56.070;12.698;2024-02-26T13:30:11;7.60;99.90
14210;DHT22;7188;56.070;12.698;2024-02-26T13:32:39;7.70;99.90
14210;DHT22;7188;56.070;12.698;2024-02-26T13:35:12;7.70;99.90
14210;DHT22;7188;56.070;12.698;2024-02-26T13:37:39;7.80;99.90
14210;DHT22;7188;56.070;12.698;2024-02-26T13:40:10;7.80;99.90
14210;DHT22;7188;56.070;12.698;2024-02-26T13:42:36;7.80;99.90
14210;DHT22;7188;56.070;12.698;2024-02-26T13:45:03;7.70;99.90
14210;DHT22;7188;56.070;12.698;2024-02-26T13:47:32;7.70;99.90
14210;DHT22;7188;56.070;12.698;2024-02-26T13:49:58;7.60;99.90
14210;DHT22;7188;56.070;12.698;2024-02-26T13:52:25;7.60;99.90
14210;DHT22;7188;56.070;12.698;2024-02-26T13:54:51;7.60;99.90
14210;DHT22;7188;56.070;12.698;2024-02-26T13:57:18;7.50;99.90
14210;DHT22;7188;56.070;12.698;2024-02-26T13:59:44;7.40;99.90
14210;DHT22;7188;56.070;12.698;2024-02-26T14:02:10;7.50;99.90
14210;DHT22;7188;56.070;12.698;2024-02-26T14:04:51;7.50;99.90
14210;DHT22;7188;56.070;12.698;2024-02-26T14:07:17;7.50;99.90
14210;DHT22;7188;56.070;12.698;2024-02-26T14:09:43;7.50;99.90
14210;DHT22;7188;56.070;12.698;2024-02-26T14:12:09;7.60;99.90
14210;DHT22;7188;56.070;12.698;2024-02-26T14:14:35;7.60;99.90
14210;DHT22;7188;56.070;12.698;2024-02-26T14:17:04;7.60;99.90
14210;DHT22;7188;56.070;12.698;2024-02-26T14:19:29;7.60;99.90
14210;DHT22;7188;56.070;12.698;2024-02-26T14:21:55;7.60;99.90
14210;DHT22;7188;56.070;12.698;2024-02-26T14:24:20;7.60;99.90
14210;DHT22;7188;56.070;12.698;2024-02-26T14:26:46;7.50;99.90
14210;DHT22;7188;56.070;12.698;2024-02-26T14:29:12;7.40;99.90
14210;DHT22;7188;56.070;12.698;2024-02-26T14:31:37;7.50;99.90
14210;DHT22;7188;56.070;12.698;2024-02-26T14:34:03;7.50;99.90
14210;DHT22;7188;56.070;12.698;2024-02-26T14:36:29;7.30;99.90
14210;DHT22;7188;56.070;12.698;2024-02-26T14:38:54;7.20;99.90
14210;DHT22;7188;56.070;12.698;2024-02-26T14:41:20;7.20;99.90
14210;DHT22;7188;56.070;12.698;2024-02-26T14:43:46;7.10;99.90
14210;DHT22;7188;56.070;12.698;2024-02-26T14:46:11;7.10;99.90
14210;DHT22;7188;56.070;12.698;2024-02-26T14:48:37;7.00;99.90
14210;DHT22;7188;56.070;12.698;2024-02-26T14:51:03;7.00;99.90
14210;DHT22;7188;56.070;12.698;2024-02-26T14:53:31;7.00;99.90
14210;DHT22;7188;56.070;12.698;2024-02-26T14:55:57;7.00;99.90
14210;DHT22;7188;56.070;12.698;2024-02-26T14:58:23;6.90;99.90
14210;DHT22;7188;56.070;12.698;2024-02-26T15:00:49;6.90;99.90
14210;DHT22;7188;56.070;12.698;2024-02-26T15:03:15;6.90;99.90
14210;DHT22;7188;56.070;12.698;2024-02-26T15:05:40;6.90;99.90
14210;DHT22;7188;56.070;12.698;2024-02-26T15:08:06;6.80;99.90
14210;DHT22;7188;56.070;12.698;2024-02-26T15:10:34;6.80;99.90
14210;DHT22;7188;56.070;12.698;2024-02-26T15:13:00;6.80;99.90
14210;DHT22;7188;56.070;12.698;2024-02-26T15:15:25;6.80;99.90
14210;DHT22;7188;56.070;12.698;2024-02-26T15:17:51;6.70;99.90
14210;DHT22;7188;56.070;12.698;2024-02-26T15:20:17;6.70;99.90
14210;DHT22;7188;56.070;12.698;2024-02-26T15:22:43;6.60;99.90
14210;DHT22;7188;56.070;12.698;2024-02-26T15:25:09;6.60;99.90
14210;DHT22;7188;56.070;12.698;2024-02-26T15:27:34;6.50;99.90
14210;DHT22;7188;56.070;12.698;2024-02-26T15:30:01;6.50;99.90
14210;DHT22;7188;56.070;12.698;2024-02-26T15:32:27;6.50;99.90
14210;DHT22;7188;56.070;12.698;2024-02-26T15:34:54;6.50;99.90
14210;DHT22;7188;56.070;12.698;2024-02-26T15:37:19;6.50;99.90
14210;DHT22;7188;56.070;12.698;2024-02-26T15:39:45;6.50;99.90
14210;DHT22;7188;56.070;12.698;2024-02-26T15:42:11;6.40;99.90
14210;DHT22;7188;56.070;12.698;2024-02-26T15:44:40;6.30;99.90
14210;DHT22;7188;56.070;12.698;2024-02-26T15:47:06;6.20;99.90
14210;DHT22;7188;56.070;12.698;2024-02-26T15:49:33;6.10;99.90
14210;DHT22;7188;56.070;12.698;2024-02-26T15:51:59;6.00;99.90
14210;DHT22;7188;56.070;12.698;2024-02-26T15:54:25;5.90;99.90